createdAt,value
2022-10-13T00:01:21.030Z,73.20
2022-10-13T00:03:48.918Z,73.30
2022-10-13T00:06:19.139Z,73.10
2022-10-13T00:08:47.050Z,73.10
2022-10-13T00:11:21.851Z,73.10
2022-10-13T00:13:50.258Z,73.20
2022-10-13T00:16:21.442Z,73.20
2022-10-13T00:18:49.761Z,73.30
2022-10-13T00:21:21.768Z,73.30
2022-10-13T00:23:49.812Z,73.30
2022-10-13T00:26:17.988Z,73.30
2022-10-13T00:28:49.733Z,73.30
2022-10-13T00:31:27.715Z,73.30
2022-10-13T00:33:56.080Z,73.40
2022-10-13T00:36:24.193Z,73.30
2022-10-13T00:38:52.647Z,73.30
2022-10-13T00:41:21.372Z,73.30
2022-10-13T00:43:54.311Z,73.40
2022-10-13T00:46:23.350Z,73.50
2022-10-13T00:48:52.186Z,73.30
2022-10-13T00:51:28.753Z,73.30
2022-10-13T00:53:58.539Z,73.40
2022-10-13T00:56:27.774Z,73.30
2022-10-13T00:58:56.023Z,73.30
2022-10-13T01:01:23.037Z,73.30
2022-10-13T01:03:50.423Z,73.30
2022-10-13T01:06:23.410Z,73.40
2022-10-13T01:08:51.491Z,73.40
2022-10-13T01:11:39.642Z,73.50
2022-10-13T01:14:35.277Z,73.70
2022-10-13T01:17:44.696Z,73.70
2022-10-13T01:20:52.514Z,73.50
2022-10-13T01:23:46.238Z,73.80
2022-10-13T01:26:40.727Z,73.60
2022-10-13T01:29:48.413Z,74.00
2022-10-13T01:32:40.033Z,73.70
2022-10-13T01:35:24.246Z,73.60
2022-10-13T01:38:22.321Z,73.70
2022-10-13T01:41:14.737Z,73.70
2022-10-13T01:44:09.321Z,73.80
2022-10-13T01:46:39.450Z,73.60
2022-10-13T01:49:14.769Z,73.60
2022-10-13T01:51:43.714Z,73.70
2022-10-13T01:54:11.251Z,73.70
2022-10-13T01:56:38.483Z,73.70
2022-10-13T01:59:12.062Z,73.70
2022-10-13T02:01:57.429Z,73.80
2022-10-13T02:05:08.299Z,74.30
2022-10-13T02:07:50.004Z,74.00
2022-10-13T02:10:35.456Z,74.20
2022-10-13T02:13:04.472Z,74.20
2022-10-13T02:15:38.772Z,73.90
2022-10-13T02:18:09.047Z,74.00
2022-10-13T02:20:36.952Z,74.00
2022-10-13T02:23:10.901Z,74.00
2022-10-13T02:25:38.921Z,74.00
2022-10-13T02:28:07.099Z,73.90
2022-10-13T02:30:34.904Z,73.90
2022-10-13T02:33:03.237Z,73.90
2022-10-13T02:35:31.083Z,73.90
2022-10-13T02:37:58.377Z,73.90
2022-10-13T02:40:26.212Z,73.90
2022-10-13T02:42:53.624Z,73.90
2022-10-13T02:45:21.112Z,73.90
2022-10-13T02:47:48.139Z,73.80
2022-10-13T02:50:15.604Z,73.80
2022-10-13T02:52:42.853Z,73.80
2022-10-13T02:55:09.977Z,73.80
2022-10-13T02:57:37.109Z,73.80
2022-10-13T03:00:07.227Z,73.80
2022-10-13T03:02:34.508Z,73.80
2022-10-13T03:05:01.808Z,73.80
2022-10-13T03:07:29.011Z,73.80
2022-10-13T03:09:56.445Z,73.80
2022-10-13T03:12:23.590Z,73.80
2022-10-13T03:14:50.792Z,73.80
2022-10-13T03:17:18.021Z,73.80
2022-10-13T03:19:45.507Z,73.80
2022-10-13T03:22:15.386Z,73.90
2022-10-13T03:24:43.269Z,73.80
2022-10-13T03:27:11.016Z,73.80
2022-10-13T03:29:38.174Z,73.70
2022-10-13T03:32:05.536Z,73.60
2022-10-13T03:34:32.794Z,73.50
2022-10-13T03:36:59.940Z,73.40
2022-10-13T03:39:27.220Z,73.40
2022-10-13T03:41:54.324Z,73.40
2022-10-13T03:44:21.467Z,73.40
2022-10-13T03:46:48.656Z,73.40
2022-10-13T03:49:17.153Z,73.40
2022-10-13T03:51:44.463Z,73.50
2022-10-13T03:54:13.001Z,73.60
2022-10-13T03:56:40.577Z,73.50
2022-10-13T03:59:08.346Z,73.50
2022-10-13T04:01:35.432Z,73.50
2022-10-13T04:04:03.108Z,73.50
2022-10-13T04:06:31.896Z,73.50
2022-10-13T04:08:59.179Z,73.40
2022-10-13T04:11:26.600Z,73.40
2022-10-13T04:13:53.791Z,73.50
2022-10-13T04:16:28.627Z,73.50
2022-10-13T04:19:00.423Z,73.50
2022-10-13T04:21:29.419Z,73.40
2022-10-13T04:23:58.895Z,73.50
2022-10-13T04:26:29.549Z,73.40
2022-10-13T04:28:56.837Z,73.50
2022-10-13T04:31:25.061Z,73.50
2022-10-13T04:33:53.587Z,73.60
2022-10-13T04:36:21.967Z,73.70
2022-10-13T04:38:49.414Z,73.60
2022-10-13T04:41:18.607Z,73.60
2022-10-13T04:43:50.250Z,73.60
2022-10-13T04:46:23.958Z,73.70
2022-10-13T04:48:51.512Z,73.70
2022-10-13T04:51:22.400Z,73.70
2022-10-13T04:53:54.674Z,73.80
2022-10-13T04:56:21.699Z,73.90
2022-10-13T04:58:49.578Z,74.00
2022-10-13T05:01:22.271Z,74.00
2022-10-13T05:03:54.686Z,74.00
2022-10-13T05:06:29.703Z,74.20
2022-10-13T05:08:57.352Z,74.20
2022-10-13T05:11:29.663Z,74.30
2022-10-13T05:13:57.633Z,74.30
2022-10-13T05:16:25.843Z,74.30
2022-10-13T05:18:55.268Z,74.30
2022-10-13T05:21:28.805Z,74.40
2022-10-13T05:23:58.127Z,74.50
2022-10-13T05:26:29.201Z,74.50
2022-10-13T05:29:00.295Z,74.50
2022-10-13T05:31:29.846Z,74.50
2022-10-13T05:33:57.651Z,74.60
2022-10-13T05:36:31.728Z,74.70
2022-10-13T05:39:02.919Z,74.80
2022-10-13T05:41:31.172Z,74.80
2022-10-13T05:44:07.822Z,74.80
2022-10-13T05:46:35.486Z,74.90
2022-10-13T05:49:02.627Z,74.90
2022-10-13T05:51:44.587Z,74.90
2022-10-13T05:54:14.708Z,75.10
2022-10-13T05:57:17.927Z,75.30
2022-10-13T05:59:56.414Z,74.60
2022-10-13T06:02:28.123Z,74.80
2022-10-13T06:04:57.648Z,74.80
2022-10-13T06:07:25.328Z,74.90
2022-10-13T06:09:52.494Z,75.00
2022-10-13T06:12:20.216Z,75.10
2022-10-13T06:14:47.586Z,75.20
2022-10-13T06:17:14.840Z,75.20
2022-10-13T06:19:42.115Z,75.40
2022-10-13T06:22:09.643Z,75.40
2022-10-13T06:24:36.958Z,75.50
2022-10-13T06:27:04.827Z,75.60
2022-10-13T06:29:33.518Z,75.80
2022-10-13T06:32:00.536Z,75.80
2022-10-13T06:34:27.762Z,75.80
2022-10-13T06:36:54.861Z,75.80
2022-10-13T06:39:22.061Z,75.90
2022-10-13T06:41:50.584Z,75.90
2022-10-13T06:44:17.699Z,75.90
2022-10-13T06:46:44.769Z,76.00
2022-10-13T06:49:11.918Z,76.00
2022-10-13T06:51:38.881Z,76.10
2022-10-13T06:54:06.045Z,76.20
2022-10-13T06:56:33.088Z,76.20
2022-10-13T06:59:00.270Z,76.30
2022-10-13T07:01:27.457Z,76.30
2022-10-13T07:03:54.638Z,76.40
2022-10-13T07:06:22.048Z,76.40
2022-10-13T07:08:49.069Z,76.40
2022-10-13T07:11:17.452Z,76.60
2022-10-13T07:13:46.849Z,76.60
2022-10-13T07:16:15.497Z,76.70
2022-10-13T07:18:42.697Z,76.70
2022-10-13T07:21:10.298Z,76.70
2022-10-13T07:23:37.320Z,76.60
2022-10-13T07:26:13.447Z,76.50
2022-10-13T07:28:42.766Z,76.40
2022-10-13T07:31:17.669Z,76.40
2022-10-13T07:33:47.894Z,76.60
2022-10-13T07:36:15.519Z,76.60
2022-10-13T07:38:42.536Z,76.60
2022-10-13T07:41:12.159Z,76.60
2022-10-13T07:43:39.715Z,76.60
2022-10-13T07:46:08.148Z,76.70
2022-10-13T07:48:36.488Z,76.60
2022-10-13T07:51:09.538Z,76.50
2022-10-13T07:53:37.044Z,76.40
2022-10-13T07:56:06.880Z,76.30
2022-10-13T07:58:37.857Z,76.30
2022-10-13T08:01:06.054Z,76.20
2022-10-13T08:03:33.309Z,76.10
2022-10-13T08:06:02.803Z,76.10
2022-10-13T08:08:30.913Z,75.90
2022-10-13T08:11:16.430Z,75.80
2022-10-13T08:13:48.999Z,75.90
2022-10-13T08:16:17.327Z,75.70
2022-10-13T08:18:45.126Z,75.60
2022-10-13T08:24:17.616Z,75.40
2022-10-13T08:26:46.769Z,75.40
2022-10-13T08:29:23.463Z,75.30
2022-10-13T08:31:55.591Z,75.30
2022-10-13T08:34:24.529Z,75.30
2022-10-13T08:36:54.694Z,75.30
2022-10-13T08:39:23.386Z,75.30
2022-10-13T08:41:51.497Z,75.40
2022-10-13T08:45:39.917Z,75.40
2022-10-13T08:47:57.875Z,75.50
2022-10-13T08:50:29.483Z,75.40
2022-10-13T08:53:04.806Z,75.20
2022-10-13T08:55:50.238Z,75.10
2022-10-13T08:58:31.435Z,75.10
2022-10-13T09:01:14.826Z,75.10
2022-10-13T09:04:09.223Z,75.10
2022-10-13T09:06:49.038Z,75.00
2022-10-13T09:09:17.281Z,75.00
2022-10-13T09:11:50.469Z,74.90
2022-10-13T09:14:24.511Z,74.70
2022-10-13T09:16:52.849Z,74.70
2022-10-13T09:19:36.778Z,74.70
2022-10-13T09:22:40.062Z,74.90
2022-10-13T09:25:07.052Z,75.00
2022-10-13T09:28:01.361Z,75.10
2022-10-13T09:30:38.460Z,74.60
2022-10-13T09:33:09.121Z,75.00
2022-10-13T09:35:41.828Z,74.80
2022-10-13T09:38:26.040Z,74.80
2022-10-13T09:41:17.464Z,74.60
2022-10-13T09:43:47.557Z,73.60
2022-10-13T09:46:34.829Z,73.90
2022-10-13T09:49:44.583Z,73.90
2022-10-13T09:52:19.643Z,73.20
2022-10-13T09:54:54.051Z,73.60
2022-10-13T09:57:46.128Z,73.40
2022-10-13T10:00:27.794Z,72.90
2022-10-13T10:03:36.434Z,72.00
2022-10-13T10:06:08.174Z,71.70
2022-10-13T10:09:03.342Z,71.40
2022-10-13T10:11:37.213Z,70.80
2022-10-13T10:14:31.172Z,71.50
2022-10-13T10:17:39.280Z,71.20
2022-10-13T10:20:41.455Z,71.30
2022-10-13T10:23:20.394Z,70.50
2022-10-13T10:25:51.224Z,70.50
2022-10-13T10:29:05.956Z,70.50
2022-10-13T10:32:10.390Z,68.50
2022-10-13T10:34:43.444Z,68.60
2022-10-13T10:37:25.838Z,69.70
2022-10-13T10:40:25.000Z,68.50
2022-10-13T10:43:19.976Z,67.80
2022-10-13T10:45:48.816Z,69.30
2022-10-13T10:48:34.907Z,69.70
2022-10-13T10:51:03.601Z,69.30
2022-10-13T10:53:51.004Z,69.60
2022-10-13T10:56:40.179Z,69.40
2022-10-13T10:59:39.476Z,68.80
2022-10-13T11:02:19.817Z,69.40
2022-10-13T11:04:50.050Z,69.10
2022-10-13T11:07:22.840Z,69.10
2022-10-13T11:09:53.068Z,68.30
2022-10-13T11:12:20.502Z,68.60
2022-10-13T11:14:56.814Z,68.50
2022-10-13T11:17:39.336Z,68.30
2022-10-13T11:20:21.695Z,68.30
2022-10-13T11:23:21.021Z,67.90
2022-10-13T11:25:48.877Z,68.10
2022-10-13T11:28:22.290Z,69.20
2022-10-13T11:31:26.059Z,68.80
2022-10-13T11:33:57.277Z,68.80
2022-10-13T11:36:48.916Z,69.10
2022-10-13T11:39:25.646Z,67.80
2022-10-13T11:42:13.728Z,68.40
2022-10-13T11:44:52.321Z,66.90
2022-10-13T11:47:55.613Z,67.20
2022-10-13T11:51:01.177Z,66.20
2022-10-13T11:53:53.832Z,66.80
2022-10-13T11:56:49.860Z,66.90
2022-10-13T11:59:37.779Z,66.10
2022-10-13T12:02:11.054Z,66.40
2022-10-13T12:04:46.333Z,66.20
2022-10-13T12:07:16.240Z,66.70
2022-10-13T12:09:56.859Z,67.00
2022-10-13T12:12:25.443Z,66.50
2022-10-13T12:14:56.455Z,67.50
2022-10-13T12:17:27.475Z,67.70
2022-10-13T12:20:01.098Z,67.70
2022-10-13T12:22:29.601Z,67.70
2022-10-13T12:25:07.380Z,67.60
2022-10-13T12:27:48.217Z,67.30
2022-10-13T12:30:30.266Z,66.30
2022-10-13T12:32:59.467Z,66.20
2022-10-13T12:35:34.880Z,66.10
2022-10-13T12:38:07.106Z,66.40
2022-10-13T12:40:34.697Z,66.50
2022-10-13T12:43:04.105Z,66.40
2022-10-13T12:45:34.607Z,66.40
2022-10-13T12:48:01.759Z,66.30
2022-10-13T12:50:36.843Z,66.10
2022-10-13T12:53:19.595Z,66.20
2022-10-13T12:56:00.665Z,66.30
2022-10-13T12:58:36.154Z,66.20
2022-10-13T13:01:15.304Z,66.30
2022-10-13T13:03:44.710Z,65.90
2022-10-13T13:06:14.767Z,66.60
2022-10-13T13:08:43.568Z,66.50
2022-10-13T13:11:36.248Z,66.30
2022-10-13T13:14:43.193Z,64.80
2022-10-13T13:17:27.645Z,64.40
2022-10-13T13:20:00.274Z,65.00
2022-10-13T13:22:27.654Z,65.30
2022-10-13T13:24:54.906Z,65.10
2022-10-13T13:27:35.207Z,65.30
2022-10-13T13:30:02.466Z,65.00
2022-10-13T13:32:31.062Z,65.30
2022-10-13T13:34:58.199Z,64.90
2022-10-13T13:37:29.554Z,64.80
2022-10-13T13:39:56.938Z,64.60
2022-10-13T13:42:24.684Z,64.50
2022-10-13T13:44:51.757Z,64.10
2022-10-13T13:47:25.151Z,64.30
2022-10-13T13:49:55.194Z,64.60
2022-10-13T13:52:23.839Z,64.60
2022-10-13T13:54:51.963Z,64.60
2022-10-13T13:57:19.690Z,64.50
2022-10-13T13:59:47.204Z,64.50
2022-10-13T14:02:21.058Z,64.60
2022-10-13T14:04:48.284Z,64.60
2022-10-13T14:07:18.110Z,64.80
2022-10-13T14:09:46.075Z,64.90
2022-10-13T14:12:13.156Z,65.10
2022-10-13T14:14:40.263Z,65.10
2022-10-13T14:17:07.402Z,65.10
2022-10-13T14:19:34.630Z,65.10
2022-10-13T14:22:05.817Z,65.20
2022-10-13T14:24:35.569Z,65.30
2022-10-13T14:27:02.782Z,65.30
2022-10-13T14:29:29.839Z,65.30
2022-10-13T14:31:56.982Z,65.30
2022-10-13T14:34:24.298Z,65.30
2022-10-13T14:36:51.315Z,65.40
2022-10-13T14:39:18.827Z,65.30
2022-10-13T14:41:46.290Z,65.20
2022-10-13T14:44:14.458Z,65.10
2022-10-13T14:46:41.685Z,65.00
2022-10-13T14:49:11.112Z,65.00
2022-10-13T14:51:38.756Z,64.90
2022-10-13T14:54:07.132Z,64.90
2022-10-13T14:56:34.736Z,64.90
2022-10-13T14:59:05.365Z,65.00
2022-10-13T15:01:33.609Z,65.00
2022-10-13T15:04:02.357Z,64.90
2022-10-13T15:06:29.921Z,64.90
2022-10-13T15:08:57.964Z,64.90
2022-10-13T15:11:26.593Z,64.90
2022-10-13T15:13:53.954Z,64.80
2022-10-13T15:16:28.518Z,64.70
2022-10-13T15:18:56.941Z,64.70
2022-10-13T15:21:24.820Z,64.70
2022-10-13T15:23:52.298Z,64.80
2022-10-13T15:26:20.824Z,64.80
2022-10-13T15:28:51.386Z,64.70
2022-10-13T15:31:20.931Z,64.70
2022-10-13T15:33:52.090Z,64.70
2022-10-13T15:36:21.111Z,64.80
2022-10-13T15:38:48.445Z,64.90
2022-10-13T15:41:16.263Z,64.90
2022-10-13T15:43:43.640Z,65.00
2022-10-13T15:46:21.471Z,65.00
2022-10-13T15:48:51.485Z,65.00
2022-10-13T15:51:20.819Z,65.00
2022-10-13T15:53:49.298Z,65.00
2022-10-13T15:56:17.196Z,65.00
2022-10-13T15:58:45.523Z,65.00
2022-10-13T16:01:13.953Z,65.10
2022-10-13T16:03:42.193Z,65.10
2022-10-13T16:06:12.024Z,65.10
2022-10-13T16:08:41.504Z,65.20
2022-10-13T16:11:10.971Z,65.10
2022-10-13T16:13:39.026Z,65.10
2022-10-13T16:16:06.459Z,65.10
2022-10-13T16:18:36.698Z,65.10
2022-10-13T16:21:18.888Z,65.20
2022-10-13T16:23:47.537Z,65.20
2022-10-13T16:26:15.882Z,65.30
2022-10-13T16:28:43.171Z,65.40
2022-10-13T16:31:13.610Z,65.50
2022-10-13T16:33:42.942Z,65.50
2022-10-13T16:36:17.059Z,65.60
2022-10-13T16:38:46.191Z,65.70
2022-10-13T16:41:17.504Z,65.80
2022-10-13T16:43:45.793Z,66.00
2022-10-13T16:46:15.611Z,66.20
2022-10-13T16:48:44.982Z,66.20
2022-10-13T16:51:22.092Z,66.20
2022-10-13T16:53:58.619Z,66.10
2022-10-13T16:56:29.346Z,66.20
2022-10-13T16:58:59.940Z,66.30
2022-10-13T17:01:28.351Z,66.40
2022-10-13T17:03:56.131Z,66.40
2022-10-13T17:06:27.001Z,66.40
2022-10-13T17:08:54.603Z,66.50
2022-10-13T17:11:28.270Z,66.70
2022-10-13T17:13:57.733Z,67.00
2022-10-13T17:16:25.075Z,67.00
2022-10-13T17:18:52.246Z,67.10
2022-10-13T17:21:21.933Z,67.10
2022-10-13T17:23:49.501Z,67.20
2022-10-13T17:26:18.424Z,67.10
2022-10-13T17:28:45.984Z,67.20
2022-10-13T17:31:18.934Z,67.20
2022-10-13T17:33:47.122Z,67.30
2022-10-13T17:36:24.803Z,67.40
2022-10-13T17:38:53.798Z,67.40
2022-10-13T17:41:22.161Z,67.50
2022-10-13T17:43:51.142Z,67.50
2022-10-13T17:46:37.044Z,67.50
2022-10-13T17:49:07.823Z,67.90
2022-10-13T17:51:35.238Z,67.70
2022-10-13T17:54:02.708Z,67.70
2022-10-13T17:56:30.116Z,67.80
2022-10-13T17:58:57.488Z,67.90
2022-10-13T18:01:33.868Z,67.90
2022-10-13T18:04:05.401Z,68.00
2022-10-13T18:06:43.985Z,68.00
2022-10-13T18:09:18.423Z,68.30
2022-10-13T18:11:50.553Z,67.90
2022-10-13T18:14:23.981Z,67.90
2022-10-13T18:16:52.478Z,68.10
2022-10-13T18:19:21.380Z,68.10
2022-10-13T18:21:49.400Z,68.10
2022-10-13T18:24:16.606Z,68.30
2022-10-13T18:26:43.834Z,68.40
2022-10-13T18:29:12.370Z,68.50
2022-10-13T18:31:41.441Z,68.60
2022-10-13T18:34:15.399Z,68.70
2022-10-13T18:36:47.360Z,68.70
2022-10-13T18:39:16.746Z,68.80
2022-10-13T18:41:44.967Z,69.20
2022-10-13T18:44:12.302Z,68.50
2022-10-13T18:46:40.472Z,68.60
2022-10-13T18:49:12.418Z,68.80
2022-10-13T18:51:40.022Z,68.80
2022-10-13T18:54:08.427Z,69.20
2022-10-13T18:56:37.110Z,68.50
2022-10-13T18:59:08.300Z,68.60
2022-10-13T19:01:37.715Z,68.80
2022-10-13T19:04:06.275Z,68.90
2022-10-13T19:06:33.698Z,68.90
2022-10-13T19:09:08.363Z,69.00
2022-10-13T19:11:36.386Z,69.10
2022-10-13T19:14:05.791Z,69.10
2022-10-13T19:16:37.778Z,69.10
2022-10-13T19:19:05.163Z,69.20
2022-10-13T19:21:32.773Z,69.40
2022-10-13T19:24:00.535Z,68.90
2022-10-13T19:26:31.325Z,69.10
2022-10-13T19:29:09.009Z,69.30
2022-10-13T19:31:38.063Z,69.40
2022-10-13T19:34:05.460Z,69.40
2022-10-13T19:36:37.625Z,69.30
2022-10-13T19:39:11.934Z,69.30
2022-10-13T19:41:39.712Z,69.40
2022-10-13T19:44:06.815Z,69.40
2022-10-13T19:46:36.695Z,69.40
2022-10-13T19:49:04.779Z,69.40
2022-10-13T19:51:32.117Z,69.40
2022-10-13T19:53:59.272Z,69.50
2022-10-13T19:56:31.467Z,69.50
2022-10-13T19:58:59.609Z,69.50
2022-10-13T20:01:27.839Z,69.40
2022-10-13T20:03:55.012Z,69.50
2022-10-13T20:06:23.087Z,69.60
2022-10-13T20:08:50.401Z,69.70
2022-10-13T20:11:23.709Z,69.70
2022-10-13T20:13:52.701Z,69.70
2022-10-13T20:16:23.415Z,69.70
2022-10-13T20:18:57.014Z,69.70
2022-10-13T20:21:25.763Z,69.80
2022-10-13T20:23:53.456Z,69.70
2022-10-13T20:26:21.224Z,69.60
2022-10-13T20:28:50.556Z,69.70
2022-10-13T20:31:21.329Z,69.70
2022-10-13T20:33:52.591Z,69.80
2022-10-13T20:36:20.164Z,69.90
2022-10-13T20:38:49.424Z,70.00
2022-10-13T20:41:23.466Z,70.00
2022-10-13T20:43:51.852Z,69.90
2022-10-13T20:46:20.669Z,70.00
2022-10-13T20:51:36.679Z,70.10
2022-10-13T20:54:03.812Z,70.10
2022-10-13T20:56:30.957Z,70.20
2022-10-13T20:59:06.868Z,70.20
2022-10-13T21:01:34.265Z,70.20
2022-10-13T21:04:01.565Z,70.20
2022-10-13T21:06:31.059Z,70.20
2022-10-13T21:08:58.258Z,70.30
2022-10-13T21:11:25.686Z,70.60
2022-10-13T21:13:53.378Z,70.70
2022-10-13T21:16:24.763Z,70.80
2022-10-13T21:18:52.290Z,70.80
2022-10-13T21:21:29.319Z,70.70
2022-10-13T21:23:59.597Z,70.80
2022-10-13T21:26:29.558Z,70.70
2022-10-13T21:28:57.401Z,70.80
2022-10-13T21:31:26.883Z,71.00
2022-10-13T21:33:54.747Z,71.10
2022-10-13T21:36:29.483Z,71.00
2022-10-13T21:39:03.718Z,71.00
2022-10-13T21:41:31.405Z,71.10
2022-10-13T21:43:59.661Z,71.10
2022-10-13T21:46:29.808Z,71.10
2022-10-13T21:49:00.027Z,71.10
2022-10-13T21:51:38.043Z,71.20
2022-10-13T21:54:09.384Z,71.50
2022-10-13T21:56:37.366Z,71.40
2022-10-13T21:59:05.653Z,71.30
2022-10-13T22:01:33.582Z,71.20
2022-10-13T22:04:02.671Z,71.20
2022-10-13T22:06:32.263Z,71.20
2022-10-13T22:09:03.837Z,71.20
2022-10-13T22:11:33.686Z,71.20
2022-10-13T22:14:01.099Z,71.20
2022-10-13T22:16:36.983Z,71.40
2022-10-13T22:19:04.660Z,71.50
2022-10-13T22:21:38.344Z,71.50
2022-10-13T22:24:08.425Z,71.50
2022-10-13T22:26:39.390Z,71.50
2022-10-13T22:29:08.907Z,71.60
2022-10-13T22:31:36.664Z,71.50
2022-10-13T22:34:04.634Z,71.60
2022-10-13T22:36:31.918Z,71.70
2022-10-13T22:39:03.008Z,71.70
2022-10-13T22:41:32.753Z,71.90
2022-10-13T22:44:01.210Z,71.90
2022-10-13T22:46:32.900Z,71.80
2022-10-13T22:49:00.755Z,71.80
2022-10-13T22:51:31.211Z,71.80
2022-10-13T22:53:59.206Z,71.90
2022-10-13T22:56:30.357Z,72.00
2022-10-13T22:59:01.728Z,72.20
2022-10-13T23:01:29.417Z,72.20
2022-10-13T23:03:58.829Z,72.20
2022-10-13T23:06:30.237Z,72.30
2022-10-13T23:09:01.708Z,72.30
2022-10-13T23:11:29.198Z,72.30
2022-10-13T23:13:56.426Z,72.40
2022-10-13T23:16:25.943Z,72.50
2022-10-13T23:18:54.140Z,72.60
2022-10-13T23:21:24.117Z,72.60
2022-10-13T23:24:00.282Z,72.60
2022-10-13T23:26:28.685Z,72.80
2022-10-13T23:28:57.135Z,72.70
2022-10-13T23:31:24.774Z,72.70
2022-10-13T23:33:52.230Z,72.80
2022-10-13T23:36:23.002Z,72.90
2022-10-13T23:39:00.051Z,73.00
2022-10-13T23:41:28.144Z,73.20
2022-10-13T23:43:55.374Z,73.20
2022-10-13T23:46:22.832Z,73.30
2022-10-13T23:48:50.136Z,73.20
2022-10-13T23:51:21.451Z,73.20
2022-10-13T23:53:48.835Z,73.10
2022-10-13T23:56:16.226Z,73.10
2022-10-13T23:58:44.916Z,73.20
